createdAt,value
2023-04-27T00:02:27.771Z,98276.53
2023-04-27T00:05:30.742Z,98280.25
2023-04-27T00:08:34.877Z,98279.16
2023-04-27T00:11:37.581Z,98273.81
2023-04-27T00:14:40.421Z,98272.22
2023-04-27T00:17:43.625Z,98269.28
2023-04-27T00:20:46.960Z,98271.69
2023-04-27T00:23:51.141Z,98267.38
2023-04-27T00:26:53.853Z,98262.59
2023-04-27T00:29:56.932Z,98260.44
2023-04-27T00:32:59.746Z,98257.44
2023-04-27T00:36:02.897Z,98261.19
2023-04-27T00:39:06.916Z,98259.00
2023-04-27T00:42:14.003Z,98252.59
2023-04-27T00:45:16.716Z,98253.97
2023-04-27T00:48:19.706Z,98252.09
2023-04-27T00:51:22.387Z,98252.13
2023-04-27T00:54:26.954Z,98246.75
2023-04-27T00:57:29.647Z,98247.25
2023-04-27T01:00:32.461Z,98245.34
2023-04-27T01:03:35.725Z,98242.97
2023-04-27T01:06:39.318Z,98253.16
2023-04-27T01:09:43.481Z,98251.25
2023-04-27T01:12:46.276Z,98250.44
2023-04-27T01:15:49.595Z,98248.28
2023-04-27T01:18:52.575Z,98254.47
2023-04-27T01:21:55.363Z,98257.13
2023-04-27T01:24:59.429Z,98254.72
2023-04-27T01:28:02.283Z,98259.00
2023-04-27T01:31:05.044Z,98258.50
2023-04-27T01:34:07.897Z,98254.72
2023-04-27T01:37:10.590Z,98259.81
2023-04-27T01:40:15.446Z,98253.66
2023-04-27T01:43:18.449Z,98248.84
2023-04-27T01:46:21.723Z,98254.19
2023-04-27T01:49:24.616Z,98245.63
2023-04-27T01:52:27.555Z,98250.19
2023-04-27T01:55:31.629Z,98258.44
2023-04-27T01:58:34.342Z,98260.06
2023-04-27T02:01:37.126Z,98256.06
2023-04-27T02:04:40.018Z,98257.38
2023-04-27T02:07:42.876Z,98265.94
2023-04-27T02:10:47.322Z,98273.41
2023-04-27T02:13:50.078Z,98265.63
2023-04-27T02:16:52.712Z,98276.09
2023-04-27T02:19:55.425Z,98270.44
2023-04-27T02:22:58.250Z,98273.91
2023-04-27T02:26:02.330Z,98273.31
2023-04-27T02:29:05.071Z,98280.00
2023-04-27T02:32:08.454Z,98283.72
2023-04-27T02:35:11.231Z,98287.72
2023-04-27T02:38:14.131Z,98279.22
2023-04-27T02:41:18.261Z,98276.53
2023-04-27T02:44:21.067Z,98286.69
2023-04-27T02:47:23.912Z,98278.16
2023-04-27T02:50:26.899Z,98284.81
2023-04-27T02:53:29.654Z,98282.09
2023-04-27T02:56:33.820Z,98292.00
2023-04-27T02:59:36.594Z,98291.69
2023-04-27T03:02:39.530Z,98287.72
2023-04-27T03:05:42.571Z,98292.03
2023-04-27T03:08:45.488Z,98299.03
2023-04-27T03:11:49.608Z,98292.91
2023-04-27T03:14:52.282Z,98282.22
2023-04-27T03:17:55.074Z,98284.59
2023-04-27T03:21:06.600Z,98291.81
2023-04-27T03:24:09.378Z,98286.25
2023-04-27T03:27:13.917Z,98287.56
2023-04-27T03:30:16.750Z,98283.25
2023-04-27T03:33:19.577Z,98288.53
2023-04-27T03:36:22.271Z,98288.53
2023-04-27T03:39:25.062Z,98293.88
2023-04-27T03:42:29.541Z,98297.03
2023-04-27T03:45:32.397Z,98287.72
2023-04-27T03:48:35.066Z,98291.22
2023-04-27T03:51:39.834Z,98292.56
2023-04-27T03:54:42.685Z,98292.03
2023-04-27T03:57:46.776Z,98298.19
2023-04-27T04:00:49.576Z,98302.25
2023-04-27T04:03:52.326Z,98296.59
2023-04-27T04:06:55.336Z,98291.25
2023-04-27T04:09:58.086Z,98295.53
2023-04-27T04:13:02.190Z,98303.56
2023-04-27T04:16:06.297Z,98294.44
2023-04-27T04:19:09.672Z,98297.91
2023-04-27T04:22:12.424Z,98291.22
2023-04-27T04:25:15.343Z,98297.94
2023-04-27T04:28:19.407Z,98310.31
2023-04-27T04:31:23.093Z,98306.00
2023-04-27T04:34:26.223Z,98308.97
2023-04-27T04:37:29.252Z,98309.47
2023-04-27T04:40:31.969Z,98311.63
2023-04-27T04:43:36.966Z,98306.28
2023-04-27T04:46:40.108Z,98305.72
2023-04-27T04:49:43.004Z,98308.19
2023-04-27T04:52:46.130Z,98311.94
2023-04-27T04:55:49.471Z,98302.63
2023-04-27T04:58:53.772Z,98309.56
2023-04-27T05:01:56.708Z,98309.78
2023-04-27T05:04:59.858Z,98311.16
2023-04-27T05:08:02.913Z,98311.19
2023-04-27T05:11:06.170Z,98320.59
2023-04-27T05:14:10.634Z,98310.44
2023-04-27T05:17:13.514Z,98310.69
2023-04-27T05:20:16.468Z,98306.72
2023-04-27T05:23:19.124Z,98310.72
2023-04-27T05:26:21.842Z,98304.03
2023-04-27T05:29:27.188Z,98310.44
2023-04-27T05:32:30.457Z,98321.47
2023-04-27T05:35:33.648Z,98324.97
2023-04-27T05:38:40.057Z,98323.34
2023-04-27T05:41:42.986Z,98324.47
2023-04-27T05:44:47.151Z,98329.31
2023-04-27T05:47:49.934Z,98319.69
2023-04-27T05:51:00.419Z,98322.66
2023-04-27T05:54:03.308Z,98330.94
2023-04-27T05:57:06.193Z,98336.88
2023-04-27T06:00:12.690Z,98339.06
2023-04-27T06:03:15.608Z,98332.28
2023-04-27T06:06:18.696Z,98340.59
2023-04-27T06:09:21.630Z,98342.50
2023-04-27T06:12:24.384Z,98345.47
2023-04-27T06:15:29.359Z,98344.97
2023-04-27T06:18:32.899Z,98342.81
2023-04-27T06:21:36.451Z,98348.69
2023-04-27T06:24:39.282Z,98351.13
2023-04-27T06:27:42.228Z,98348.16
2023-04-27T06:30:46.539Z,98352.19
2023-04-27T06:33:49.353Z,98352.44
2023-04-27T06:36:52.239Z,98347.06
2023-04-27T06:39:55.584Z,98351.63
2023-04-27T06:42:58.380Z,98351.88
2023-04-27T06:46:02.972Z,98354.00
2023-04-27T06:49:05.886Z,98356.06
2023-04-27T06:52:08.725Z,98365.13
2023-04-27T06:55:11.646Z,98361.09
2023-04-27T06:58:14.507Z,98358.69
2023-04-27T07:01:18.798Z,98366.47
2023-04-27T07:04:21.916Z,98366.97
2023-04-27T07:07:25.244Z,98364.47
2023-04-27T07:10:28.961Z,98359.88
2023-04-27T07:13:31.896Z,98372.50
2023-04-27T07:16:36.529Z,98369.81
2023-04-27T07:19:39.686Z,98366.50
2023-04-27T07:22:42.474Z,98360.88
2023-04-27T07:25:46.333Z,98361.84
2023-04-27T07:28:50.236Z,98363.88
2023-04-27T07:31:54.508Z,98360.72
2023-04-27T07:34:58.168Z,98359.28
2023-04-27T07:38:01.868Z,98358.19
2023-04-27T07:41:05.735Z,98349.41
2023-04-27T07:44:08.531Z,98340.78
2023-04-27T07:47:13.598Z,98340.56
2023-04-27T07:50:17.792Z,98348.44
2023-04-27T07:53:20.905Z,98343.44
2023-04-27T07:56:23.872Z,98344.53
2023-04-27T07:59:29.816Z,98351.84
2023-04-27T08:02:34.855Z,98347.72
2023-04-27T08:05:38.346Z,98344.84
2023-04-27T08:08:41.519Z,98344.19
2023-04-27T08:11:44.373Z,98346.00
2023-04-27T08:14:47.973Z,98339.63
2023-04-27T08:17:52.267Z,98331.44
2023-04-27T08:20:55.210Z,98327.13
2023-04-27T08:23:58.024Z,98326.50
2023-04-27T08:27:01.051Z,98325.97
2023-04-27T08:30:04.011Z,98322.25
2023-04-27T08:33:08.359Z,98329.00
2023-04-27T08:36:11.123Z,98318.13
2023-04-27T08:39:14.093Z,98315.59
2023-04-27T08:42:17.152Z,98321.16
2023-04-27T08:45:20.576Z,98315.38
2023-04-27T08:48:25.003Z,98313.00
2023-04-27T08:51:28.710Z,98311.00
2023-04-27T08:54:31.784Z,98306.19
2023-04-27T08:57:34.529Z,98300.34
2023-04-27T09:00:41.560Z,98300.09
2023-04-27T09:03:47.314Z,98308.44
2023-04-27T09:06:50.668Z,98298.31
2023-04-27T09:10:04.119Z,98306.28
2023-04-27T09:13:07.097Z,98305.78
2023-04-27T09:16:10.227Z,98310.66
2023-04-27T09:19:25.059Z,98313.59
2023-04-27T09:22:27.946Z,98326.06
2023-04-27T09:25:33.042Z,98322.19
2023-04-27T09:28:39.163Z,98323.78
2023-04-27T09:31:41.934Z,98322.88
2023-04-27T09:34:46.450Z,98321.69
2023-04-27T09:37:51.978Z,98316.72
2023-04-27T09:40:56.702Z,98318.28
2023-04-27T09:44:00.238Z,98310.25
2023-04-27T09:47:03.058Z,98308.44
2023-04-27T09:50:09.097Z,98310.06
2023-04-27T09:53:13.893Z,98307.50
2023-04-27T09:56:29.114Z,98304.78
2023-04-27T10:00:01.736Z,98303.38
2023-04-27T10:03:16.628Z,98299.03
2023-04-27T10:06:53.168Z,98302.53
2023-04-27T10:09:56.073Z,98300.00
2023-04-27T10:13:02.953Z,98305.91
2023-04-27T10:16:17.226Z,98300.63
2023-04-27T10:19:20.620Z,98294.56
2023-04-27T10:22:25.556Z,98300.63
2023-04-27T10:25:31.182Z,98297.31
2023-04-27T10:28:40.204Z,98295.69
2023-04-27T10:31:45.017Z,98300.75
2023-04-27T10:34:49.099Z,98299.16
2023-04-27T10:37:53.351Z,98287.13
2023-04-27T10:41:01.541Z,98296.53
2023-04-27T10:44:18.736Z,98284.66
2023-04-27T10:47:22.128Z,98276.13
2023-04-27T10:50:26.369Z,98261.19
2023-04-27T10:53:35.507Z,98273.28
2023-04-27T10:56:38.431Z,98270.19
2023-04-27T10:59:50.832Z,98279.28
2023-04-27T11:02:54.820Z,98286.75
2023-04-27T11:06:04.153Z,98283.31
2023-04-27T11:09:10.673Z,98279.59
2023-04-27T11:12:14.044Z,98281.13
2023-04-27T11:15:16.820Z,98277.31
2023-04-27T11:18:21.882Z,98280.94
2023-04-27T11:21:25.617Z,98272.22
2023-04-27T11:24:32.853Z,98271.88
2023-04-27T11:27:39.547Z,98271.41
2023-04-27T11:30:42.420Z,98268.28
2023-04-27T11:33:49.886Z,98263.28
2023-04-27T11:37:17.438Z,98261.22
2023-04-27T11:40:24.560Z,98266.59
2023-04-27T11:43:28.125Z,98270.75
2023-04-27T11:46:31.330Z,98266.53
2023-04-27T11:49:34.496Z,98271.13
2023-04-27T11:52:39.079Z,98276.72
2023-04-27T11:55:45.033Z,98270.72
2023-04-27T11:58:47.956Z,98259.41
2023-04-27T12:01:52.721Z,98265.47
2023-04-27T12:04:55.638Z,98249.28
2023-04-27T12:07:58.485Z,98245.00
2023-04-27T12:11:02.709Z,98248.59
2023-04-27T12:14:05.572Z,98244.00
2023-04-27T12:17:08.512Z,98240.66
2023-04-27T12:20:12.855Z,98237.34
2023-04-27T12:23:15.773Z,98237.75
2023-04-27T12:26:20.487Z,98233.81
2023-04-27T12:29:24.489Z,98243.94
2023-04-27T12:32:28.137Z,98230.22
2023-04-27T12:35:32.129Z,98231.59
2023-04-27T12:38:35.095Z,98225.03
2023-04-27T12:41:39.309Z,98225.16
2023-04-27T12:44:42.395Z,98223.81
2023-04-27T12:48:01.085Z,98231.75
2023-04-27T12:51:07.429Z,98221.66
2023-04-27T12:54:12.966Z,98226.50
2023-04-27T12:57:17.373Z,98213.94
2023-04-27T13:00:20.690Z,98216.25
2023-04-27T13:03:23.584Z,98212.94
2023-04-27T13:06:26.966Z,98208.91
2023-04-27T13:09:30.142Z,98208.81
2023-04-27T13:12:34.507Z,98207.38
2023-04-27T13:15:37.600Z,98207.19
2023-04-27T13:18:41.382Z,98200.41
2023-04-27T13:21:44.117Z,98208.47
2023-04-27T13:24:46.989Z,98185.38
2023-04-27T13:27:51.665Z,98195.47
2023-04-27T13:30:54.692Z,98208.34
2023-04-27T13:33:57.519Z,98204.19
2023-04-27T13:37:00.301Z,98202.47
2023-04-27T13:40:03.049Z,98199.31
2023-04-27T13:43:07.246Z,98196.59
2023-04-27T13:46:10.140Z,98192.75
2023-04-27T13:49:12.982Z,98185.00
2023-04-27T13:52:15.731Z,98192.09
2023-04-27T13:55:18.534Z,98192.00
2023-04-27T13:58:25.642Z,98193.69
2023-04-27T14:01:29.590Z,98192.81
2023-04-27T14:04:32.618Z,98191.13
2023-04-27T14:07:36.519Z,98195.00
2023-04-27T14:10:39.556Z,98190.97
2023-04-27T14:13:43.741Z,98192.59
2023-04-27T14:16:46.986Z,98184.91
2023-04-27T14:19:50.003Z,98183.03
2023-04-27T14:22:52.820Z,98183.94
2023-04-27T14:25:55.756Z,98192.22
2023-04-27T14:29:00.102Z,98177.75
2023-04-27T14:32:02.888Z,98179.44
2023-04-27T14:35:07.045Z,98183.38
2023-04-27T14:38:09.994Z,98182.44
2023-04-27T14:41:13.071Z,98183.16
2023-04-27T14:44:17.250Z,98174.88
2023-04-27T14:47:20.133Z,98186.59
2023-04-27T14:50:22.831Z,98190.78
2023-04-27T14:53:25.790Z,98191.69
2023-04-27T14:56:28.531Z,98191.19
2023-04-27T14:59:34.177Z,98180.28
2023-04-27T15:02:37.309Z,98187.13
2023-04-27T15:05:40.365Z,98189.19
2023-04-27T15:08:43.281Z,98189.53
2023-04-27T15:11:46.798Z,98188.28
2023-04-27T15:14:52.776Z,98190.16
2023-04-27T15:17:55.671Z,98186.88
2023-04-27T15:21:00.157Z,98181.22
2023-04-27T15:24:02.970Z,98181.31
2023-04-27T15:27:07.207Z,98181.78
2023-04-27T15:30:16.137Z,98173.78
2023-04-27T15:33:19.559Z,98170.81
2023-04-27T15:36:23.435Z,98172.16
2023-04-27T15:39:27.345Z,98169.81
2023-04-27T15:42:30.370Z,98178.53
2023-04-27T15:45:34.617Z,98171.53
2023-04-27T15:48:37.515Z,98175.91
2023-04-27T15:51:40.266Z,98173.47
2023-04-27T15:54:43.036Z,98172.22
2023-04-27T15:57:45.882Z,98158.66
2023-04-27T16:00:50.097Z,98157.34
2023-04-27T16:03:52.858Z,98155.84
2023-04-27T16:06:55.651Z,98151.81
2023-04-27T16:09:58.807Z,98137.91
2023-04-27T16:13:01.549Z,98139.78
2023-04-27T16:16:06.294Z,98140.75
2023-04-27T16:19:09.956Z,98137.25
2023-04-27T16:22:12.927Z,98131.81
2023-04-27T16:25:16.062Z,98131.19
2023-04-27T16:28:18.953Z,98130.34
2023-04-27T16:31:24.155Z,98122.47
2023-04-27T16:34:27.838Z,98127.63
2023-04-27T16:37:30.642Z,98123.59
2023-04-27T16:40:33.499Z,98124.84
2023-04-27T16:43:36.308Z,98113.69
2023-04-27T16:46:40.498Z,98111.97
2023-04-27T16:49:43.619Z,98126.31
2023-04-27T16:52:46.483Z,98120.41
2023-04-27T16:55:49.449Z,98118.38
2023-04-27T16:58:52.288Z,98116.16
2023-04-27T17:01:56.486Z,98116.03
2023-04-27T17:04:59.534Z,98117.66
2023-04-27T17:08:05.105Z,98125.00
2023-04-27T17:11:09.306Z,98119.88
2023-04-27T17:14:13.869Z,98121.31
2023-04-27T17:17:18.116Z,98111.47
2023-04-27T17:20:21.574Z,98119.97
2023-04-27T17:23:24.768Z,98124.84
2023-04-27T17:26:27.594Z,98124.06
2023-04-27T17:29:30.384Z,98130.19
2023-04-27T17:32:34.674Z,98127.16
2023-04-27T17:35:37.437Z,98132.25
2023-04-27T17:38:40.900Z,98132.38
2023-04-27T17:41:43.854Z,98125.31
2023-04-27T17:44:46.837Z,98127.53
2023-04-27T17:47:51.799Z,98130.06
2023-04-27T17:50:54.820Z,98132.06
2023-04-27T17:53:57.545Z,98125.69
2023-04-27T17:57:00.375Z,98127.91
2023-04-27T18:00:03.268Z,98124.50
2023-04-27T18:03:07.530Z,98119.53
2023-04-27T18:06:10.729Z,98126.19
2023-04-27T18:09:13.788Z,98128.88
2023-04-27T18:12:16.748Z,98134.06
2023-04-27T18:15:19.518Z,98129.53
2023-04-27T18:18:25.368Z,98137.09
2023-04-27T18:21:28.383Z,98147.88
2023-04-27T18:24:31.200Z,98146.81
2023-04-27T18:27:33.941Z,98145.88
2023-04-27T18:30:36.704Z,98152.00
2023-04-27T18:33:40.866Z,98149.31
2023-04-27T18:36:43.641Z,98157.34
2023-04-27T18:39:46.348Z,98150.53
2023-04-27T18:42:49.184Z,98146.38
2023-04-27T18:45:52.086Z,98141.91
2023-04-27T18:48:56.253Z,98137.00
2023-04-27T18:51:59.008Z,98140.09
2023-04-27T18:55:02.032Z,98143.09
2023-04-27T18:58:04.807Z,98145.00
2023-04-27T19:01:07.775Z,98148.09
2023-04-27T19:04:12.538Z,98139.22
2023-04-27T19:07:15.515Z,98147.41
2023-04-27T19:10:18.484Z,98153.88
2023-04-27T19:13:21.784Z,98159.28
2023-04-27T19:16:24.880Z,98159.09
2023-04-27T19:19:28.989Z,98158.94
2023-04-27T19:22:34.229Z,98165.59
2023-04-27T19:25:37.304Z,98172.50
2023-04-27T19:28:40.351Z,98173.66
2023-04-27T19:31:43.160Z,98165.94
2023-04-27T19:34:47.320Z,98161.97
2023-04-27T19:37:50.021Z,98159.06
2023-04-27T19:40:53.112Z,98150.94
2023-04-27T19:43:56.070Z,98140.00
2023-04-27T19:46:58.882Z,98135.50
2023-04-27T19:50:04.862Z,98141.28
2023-04-27T19:53:07.602Z,98141.03
2023-04-27T19:56:10.326Z,98149.19
2023-04-27T19:59:13.112Z,98145.44
2023-04-27T20:02:15.912Z,98144.31
2023-04-27T20:05:20.405Z,98140.69
2023-04-27T20:08:23.395Z,98138.50
2023-04-27T20:11:26.216Z,98146.66
2023-04-27T20:14:29.951Z,98146.22
2023-04-27T20:17:32.887Z,98150.81
2023-04-27T20:20:37.467Z,98146.59
2023-04-27T20:23:40.221Z,98147.19
2023-04-27T20:26:42.913Z,98142.66
2023-04-27T20:29:47.154Z,98147.59
2023-04-27T20:32:49.884Z,98136.94
2023-04-27T20:36:03.525Z,98136.66
2023-04-27T20:39:13.082Z,98129.97
2023-04-27T20:42:16.095Z,98125.22
2023-04-27T20:45:18.893Z,98129.81
2023-04-27T20:48:21.603Z,98127.97
2023-04-27T20:51:26.234Z,98132.84
2023-04-27T20:54:31.071Z,98126.22
2023-04-27T20:57:33.763Z,98124.84
2023-04-27T21:00:36.767Z,98118.59
2023-04-27T21:03:39.742Z,98114.59
2023-04-27T21:06:44.574Z,98106.56
2023-04-27T21:09:47.323Z,98105.78
2023-04-27T21:12:49.999Z,98102.50
2023-04-27T21:15:52.739Z,98101.47
2023-04-27T21:18:55.444Z,98102.81
2023-04-27T21:21:59.857Z,98106.84
2023-04-27T21:25:02.754Z,98105.06
2023-04-27T21:28:05.876Z,98094.94
2023-04-27T21:31:08.682Z,98094.41
2023-04-27T21:34:11.891Z,98090.41
2023-04-27T21:37:15.908Z,98088.81
2023-04-27T21:40:18.931Z,98083.44
2023-04-27T21:43:21.774Z,98078.56
2023-04-27T21:46:24.666Z,98077.16
2023-04-27T21:49:27.484Z,98078.09
2023-04-27T21:52:31.577Z,98066.28
2023-04-27T21:55:34.231Z,98071.88
2023-04-27T21:58:39.083Z,98072.44
2023-04-27T22:01:42.048Z,98065.59
2023-04-27T22:04:45.329Z,98061.31
2023-04-27T22:07:49.504Z,98062.88
2023-04-27T22:10:52.449Z,98063.31
2023-04-27T22:13:56.159Z,98060.94
2023-04-27T22:17:00.917Z,98057.47
2023-04-27T22:20:05.485Z,98063.81
2023-04-27T22:23:09.854Z,98067.94
2023-04-27T22:26:12.641Z,98073.41
2023-04-27T22:29:16.104Z,98070.19
2023-04-27T22:32:18.889Z,98062.44
2023-04-27T22:35:27.167Z,98066.03
2023-04-27T22:38:32.157Z,98064.69
2023-04-27T22:41:34.923Z,98061.47
2023-04-27T22:44:37.688Z,98064.47
2023-04-27T22:47:41.474Z,98063.16
2023-04-27T22:50:44.356Z,98061.53
2023-04-27T22:53:48.491Z,98054.84
2023-04-27T22:56:51.527Z,98058.88
2023-04-27T22:59:54.344Z,98057.31
2023-04-27T23:02:57.290Z,98056.19
2023-04-27T23:06:00.876Z,98055.66
2023-04-27T23:09:05.474Z,98068.53
2023-04-27T23:12:08.946Z,98060.75
2023-04-27T23:15:12.883Z,98065.84
2023-04-27T23:18:15.937Z,98064.53
2023-04-27T23:21:18.814Z,98063.44
2023-04-27T23:24:23.075Z,98051.38
2023-04-27T23:27:25.974Z,98055.31
2023-04-27T23:30:29.722Z,98048.53
2023-04-27T23:33:33.512Z,98048.22
2023-04-27T23:36:36.173Z,98042.50
2023-04-27T23:39:40.342Z,98036.59
2023-04-27T23:42:43.023Z,98034.44
2023-04-27T23:45:50.439Z,98018.00
2023-04-27T23:48:53.636Z,98022.50
2023-04-27T23:51:56.644Z,98013.84
2023-04-27T23:55:01.000Z,98000.59
2023-04-27T23:58:03.894Z,98001.84
